Terminal Aerodrome Forecast
Issued by NWS

Home | Current Version | Previous Version | Text Only | Print | Product List | Glossary On
Versions: 1 2 3 4 5 6 7 8 9 10 11 12 13 14 15
281
FTPA31 PHFO 231122
TAFHJR
TAF
PHJR 231122Z 2312/2412 06007KT P6SM VCSH FEW030 BKN050
     FM232000 06010G20KT P6SM FEW030 SCT050
     FM240500 06007KT P6SM VCSH FEW030 BKN050=

USA.gov is the U.S. government's official web portal to all federal, state and local government web resources and services.